Time;durP1;ratioP1;P1;durP2;ratioP2;P2;SDS_P1;SDS_P2;PMS_P1;PMS_P2;Temp;Humidity;BMP_temperature;BMP_pressure;BME280_temperature;BME280_humidity;BME280_pressure;Samples;Min_cycle;Max_cycle;Signal;HPM_P1;HPM_P2
2022/05/30 00:00:40;;;;;;;1.90;1.80;;;10.30;99.90;;;;;;5095056;28;20058;-45
2022/05/30 00:03:07;;;;;;;1.75;1.65;;;10.20;99.90;;;;;;5095050;28;20116;-46
2022/05/30 00:05:34;;;;;;;2.00;1.80;;;10.20;99.90;;;;;;5094956;28;20107;-45
2022/05/30 00:08:00;;;;;;;2.53;2.35;;;10.20;99.90;;;;;;5092390;28;20055;-47
2022/05/30 00:10:27;;;;;;;2.40;2.00;;;10.20;99.90;;;;;;5094623;28;20079;-45
2022/05/30 00:12:54;;;;;;;2.60;1.73;;;10.20;99.90;;;;;;5094795;28;20032;-46
2022/05/30 00:15:21;;;;;;;1.70;1.60;;;10.20;99.90;;;;;;5078034;28;20024;-45
2022/05/30 00:17:47;;;;;;;4.00;1.80;;;10.20;99.90;;;;;;5074279;28;20024;-47
2022/05/30 00:20:14;;;;;;;1.60;1.50;;;10.10;99.90;;;;;;5075062;28;20043;-44
2022/05/30 00:22:40;;;;;;;1.58;1.48;;;10.10;99.90;;;;;;5074423;28;20032;-45
2022/05/30 00:25:06;;;;;;;2.10;1.90;;;10.10;99.90;;;;;;5074423;28;20020;-44
2022/05/30 00:27:32;;;;;;;1.80;1.70;;;10.00;99.90;;;;;;5074008;28;20033;-45
2022/05/30 00:29:58;;;;;;;2.40;2.13;;;9.90;99.90;;;;;;5074131;28;20377;-45
2022/05/30 00:32:24;;;;;;;2.05;1.95;;;9.80;99.90;;;;;;5080452;28;20046;-46
2022/05/30 00:34:50;;;;;;;2.20;2.10;;;9.70;99.90;;;;;;5094356;28;20395;-46
2022/05/30 00:37:16;;;;;;;2.95;2.08;;;9.70;99.90;;;;;;5085413;28;20036;-45
2022/05/30 00:39:41;;;;;;;1.85;1.75;;;9.70;99.90;;;;;;5074139;28;20025;-47
2022/05/30 00:42:13;;;;;;;1.90;1.80;;;9.70;99.90;;;;;;5073934;28;20028;-47
2022/05/30 00:44:40;;;;;;;2.08;1.98;;;9.60;99.90;;;;;;5072942;28;20411;-48
2022/05/30 00:47:06;;;;;;;2.20;2.00;;;9.60;99.90;;;;;;5073388;28;20111;-47
2022/05/30 00:49:33;;;;;;;2.83;2.55;;;9.60;99.90;;;;;;5074073;28;20124;-45
2022/05/30 00:52:05;;;;;;;3.70;2.25;;;9.60;99.90;;;;;;5081343;28;20028;-47
2022/05/30 00:54:54;;;;;;;2.47;2.28;;;9.60;99.90;;;;;;5094290;28;20497;-47
2022/05/30 00:57:23;;;;;;;3.90;2.20;;;9.50;99.90;;;;;;5093356;28;20203;-47
2022/05/30 00:59:54;;;;;;;2.30;2.10;;;9.50;99.90;;;;;;5091240;28;20031;-44
2022/05/30 01:02:25;;;;;;;2.35;2.25;;;9.40;99.90;;;;;;5104775;22;20041;-47
2022/05/30 01:07:37;;;;;;;2.88;2.40;;;9.30;99.90;;;;;;5073561;28;20071;-46
2022/05/30 01:10:06;;;;;;;17.58;9.23;;;9.30;99.90;;;;;;5074073;28;20446;-46
2022/05/30 01:12:42;;;;;;;6.90;2.78;;;9.30;99.90;;;;;;5070957;28;20058;-43
2022/05/30 01:15:14;;;;;;;2.42;2.30;;;9.20;99.90;;;;;;5073736;28;20024;-47
2022/05/30 01:17:57;;;;;;;3.25;2.03;;;9.20;99.90;;;;;;5073354;28;20028;-46
2022/05/30 01:20:46;;;;;;;1.85;1.70;;;9.20;99.90;;;;;;5073624;28;20039;-46
2022/05/30 01:23:36;;;;;;;3.28;1.95;;;9.10;99.90;;;;;;5073573;28;20108;-47
2022/05/30 01:26:30;;;;;;;1.83;1.73;;;9.10;99.90;;;;;;5069199;28;20115;-40
2022/05/30 01:29:01;;;;;;;1.90;1.80;;;9.00;99.90;;;;;;5053256;28;20074;-46
2022/05/30 01:31:27;;;;;;;2.42;1.77;;;9.00;99.90;;;;;;5053127;28;20037;-44
2022/05/30 01:33:53;;;;;;;2.75;2.55;;;9.00;99.90;;;;;;5051815;28;20021;-47
2022/05/30 01:36:24;;;;;;;3.22;2.00;;;9.00;99.90;;;;;;5054239;28;20021;-45
2022/05/30 01:38:50;;;;;;;2.95;2.10;;;8.90;99.90;;;;;;5052775;28;20100;-42
2022/05/30 01:41:16;;;;;;;2.72;2.33;;;8.90;99.90;;;;;;5053026;28;20555;-45
2022/05/30 01:43:41;;;;;;;3.15;2.42;;;8.90;99.90;;;;;;5052870;28;20029;-45
2022/05/30 01:46:09;;;;;;;4.25;2.83;;;8.90;99.90;;;;;;5066494;28;20033;-44
2022/05/30 01:48:36;;;;;;;2.00;1.90;;;8.90;99.90;;;;;;5071818;28;20043;-42
2022/05/30 01:51:03;;;;;;;3.13;2.30;;;;;;;;;;5072856;28;20043;-44
2022/05/30 01:53:29;;;;;;;2.30;2.10;;;8.90;99.90;;;;;;5072736;28;20048;-45
2022/05/30 01:55:54;;;;;;;2.17;1.95;;;8.90;99.90;;;;;;5072763;28;20020;-41
2022/05/30 01:58:20;;;;;;;2.33;2.22;;;9.00;99.90;;;;;;5070880;28;20557;-49
2022/05/30 02:00:46;;;;;;;3.10;2.30;;;9.00;99.90;;;;;;5072653;28;20028;-45
2022/05/30 02:03:11;;;;;;;3.97;2.42;;;9.00;99.90;;;;;;5072424;28;20094;-45
2022/05/30 02:05:37;;;;;;;3.03;2.70;;;8.90;99.90;;;;;;5072413;28;20373;-43
2022/05/30 02:08:02;;;;;;;2.90;2.70;;;8.90;99.90;;;;;;5056774;28;20076;-40
2022/05/30 02:10:30;;;;;;;4.30;2.53;;;8.90;99.90;;;;;;5051182;28;20028;-44
2022/05/30 02:12:55;;;;;;;2.83;2.60;;;8.90;99.90;;;;;;5052413;28;20052;-48
2022/05/30 02:15:21;;;;;;;2.72;2.60;;;8.90;99.90;;;;;;5052280;28;20059;-45
2022/05/30 02:17:46;;;;;;;2.90;2.70;;;8.90;99.90;;;;;;5064063;28;20043;-40
2022/05/30 02:20:12;;;;;;;2.40;2.30;;;8.90;99.90;;;;;;5072137;28;20033;-45
2022/05/30 02:22:38;;;;;;;2.78;2.53;;;9.00;99.90;;;;;;5071984;28;20507;-47
2022/05/30 02:25:04;;;;;;;3.08;2.30;;;8.80;99.90;;;;;;5072367;28;20389;-39
2022/05/30 02:27:30;;;;;;;2.35;2.15;;;8.80;99.90;;;;;;5063357;28;20124;-44
2022/05/30 02:29:55;;;;;;;3.92;2.75;;;8.70;99.90;;;;;;5052267;28;20519;-46
2022/05/30 02:32:21;;;;;;;3.28;3.05;;;8.70;99.90;;;;;;5052024;28;20092;-44
2022/05/30 02:37:31;;;;;;;3.78;2.80;;;8.70;99.90;;;;;;5061457;28;20161;-44
2022/05/30 02:39:57;;;;;;;2.40;2.28;;;8.80;99.90;;;;;;5072110;28;20029;-42
2022/05/30 02:42:22;;;;;;;2.92;2.72;;;8.80;99.90;;;;;;5062606;28;20032;-45
2022/05/30 02:44:49;;;;;;;4.68;2.75;;;8.80;99.90;;;;;;5052082;28;20399;-45
2022/05/30 02:47:16;;;;;;;3.00;2.50;;;8.70;99.90;;;;;;5058063;28;20155;-43
2022/05/30 02:49:42;;;;;;;5.38;3.10;;;8.80;99.90;;;;;;5073137;28;20035;-44
2022/05/30 02:52:08;;;;;;;3.10;2.90;;;8.70;99.90;;;;;;5072618;28;20021;-42
2022/05/30 02:54:33;;;;;;;2.97;2.70;;;8.70;99.90;;;;;;5072831;28;20082;-47
2022/05/30 02:56:59;;;;;;;4.72;2.92;;;8.70;99.90;;;;;;5070084;28;20043;-41
2022/05/30 02:59:27;;;;;;;2.30;2.20;;;;;;;;;;5051779;28;20481;-45
2022/05/30 03:01:53;;;;;;;29.02;22.63;;;8.60;99.90;;;;;;5052281;28;20032;-45
2022/05/30 03:04:19;;;;;;;14.65;11.30;;;8.60;99.90;;;;;;5052563;28;20028;-45
2022/05/30 03:06:45;;;;;;;76.20;42.53;;;8.60;99.90;;;;;;5051875;28;20029;-43
2022/05/30 03:09:13;;;;;;;6.90;5.25;;;8.50;99.90;;;;;;5071090;28;20023;-44
2022/05/30 03:11:39;;;;;;;3.63;3.15;;;8.50;99.90;;;;;;5072609;28;20086;-45
2022/05/30 03:14:04;;;;;;;4.40;2.85;;;8.50;99.90;;;;;;5072200;28;20480;-44
2022/05/30 03:16:31;;;;;;;5.03;3.00;;;8.50;99.90;;;;;;5067634;28;20437;-44
2022/05/30 03:18:56;;;;;;;3.10;2.80;;;8.50;99.90;;;;;;5051789;28;20029;-44
2022/05/30 03:21:22;;;;;;;4.47;2.90;;;8.50;99.90;;;;;;5051732;28;20028;-44
2022/05/30 03:23:48;;;;;;;3.90;2.42;;;8.40;99.90;;;;;;5057144;28;20021;-44
2022/05/30 03:26:15;;;;;;;3.75;2.90;;;8.30;99.90;;;;;;5072509;28;20028;-44
2022/05/30 03:28:41;;;;;;;5.20;3.33;;;8.30;99.90;;;;;;5057220;28;20025;-48
2022/05/30 03:31:07;;;;;;;3.35;3.05;;;8.30;99.90;;;;;;5053336;28;20029;-40
2022/05/30 03:33:34;;;;;;;3.25;2.95;;;8.20;99.90;;;;;;5051868;28;20013;-42
2022/05/30 03:36:16;;;;;;;3.47;3.17;;;8.20;99.90;;;;;;5051881;28;20103;-44
2022/05/30 03:38:42;;;;;;;3.40;3.13;;;8.10;99.90;;;;;;5072087;28;20035;-45
2022/05/30 03:41:08;;;;;;;3.72;3.40;;;8.10;99.90;;;;;;5072061;28;20029;-41
2022/05/30 03:43:33;;;;;;;3.97;3.58;;;8.10;99.90;;;;;;5071651;28;20085;-47
2022/05/30 03:46:00;;;;;;;3.85;3.55;;;8.10;99.90;;;;;;5060827;28;20037;-45
2022/05/30 03:48:25;;;;;;;3.90;3.50;;;8.10;99.90;;;;;;5064199;28;20086;-42
2022/05/30 03:50:51;;;;;;;3.53;3.25;;;8.20;99.90;;;;;;5050195;28;20025;-44
2022/05/30 03:53:17;;;;;;;4.22;3.10;;;8.20;99.90;;;;;;5052198;28;20389;-43
2022/05/30 03:55:44;;;;;;;3.67;3.10;;;8.30;99.90;;;;;;5051158;28;20046;-48
2022/05/30 03:58:12;;;;;;;3.60;3.30;;;8.30;99.90;;;;;;5051920;28;20040;-47
2022/05/30 04:00:39;;;;;;;3.83;3.53;;;8.30;99.90;;;;;;5051054;28;20021;-43
2022/05/30 04:03:06;;;;;;;4.22;3.83;;;8.30;99.90;;;;;;5050789;28;20164;-46
2022/05/30 04:05:31;;;;;;;3.42;2.97;;;8.30;99.90;;;;;;5050913;28;20032;-47
2022/05/30 04:07:57;;;;;;;4.28;2.95;;;8.40;99.90;;;;;;5051810;28;20033;-43
2022/05/30 04:10:24;;;;;;;6.05;2.83;;;8.40;99.90;;;;;;5051857;28;20484;-47
2022/05/30 04:12:50;;;;;;;4.25;3.17;;;8.50;99.90;;;;;;5050763;28;20019;-40
2022/05/30 04:15:21;;;;;;;3.15;2.70;;;8.60;99.90;;;;;;5051447;28;20112;-46
2022/05/30 04:17:48;;;;;;;3.40;3.20;;;8.70;99.90;;;;;;5050785;28;20075;-40
2022/05/30 04:20:14;;;;;;;3.63;3.22;;;8.70;99.90;;;;;;5051388;28;20051;-48
2022/05/30 04:22:40;;;;;;;5.85;2.92;;;8.80;99.90;;;;;;5070864;28;20020;-44
2022/05/30 04:25:06;;;;;;;4.47;3.45;;;9.00;99.90;;;;;;5069157;28;20086;-48
2022/05/30 04:27:38;;;;;;;5.07;3.78;;;9.10;99.90;;;;;;5070334;28;20122;-45
2022/05/30 04:30:06;;;;;;;4.15;3.20;;;9.20;99.90;;;;;;5071033;28;20021;-43
2022/05/30 04:32:31;;;;;;;4.45;3.13;;;9.40;99.90;;;;;;5070775;28;20415;-45
2022/05/30 04:34:57;;;;;;;3.03;2.83;;;9.60;99.90;;;;;;5064406;28;20029;-43
2022/05/30 04:37:23;;;;;;;3.25;2.92;;;9.50;99.90;;;;;;5068990;28;20029;-47
2022/05/30 04:39:48;;;;;;;3.35;2.80;;;9.70;99.90;;;;;;5072748;28;20028;-47
2022/05/30 04:42:14;;;;;;;5.43;3.20;;;9.80;99.90;;;;;;5074154;28;20492;-44
2022/05/30 04:44:39;;;;;;;3.20;2.90;;;9.90;99.90;;;;;;5074077;28;20021;-41
2022/05/30 04:47:06;;;;;;;3.90;3.05;;;10.00;99.90;;;;;;5056026;28;20037;-46
2022/05/30 04:49:32;;;;;;;3.20;3.00;;;10.10;99.90;;;;;;5054182;28;20025;-43
2022/05/30 04:51:57;;;;;;;5.22;3.83;;;10.50;99.90;;;;;;5055450;28;20556;-46
2022/05/30 04:54:24;;;;;;;2.50;2.25;;;11.00;99.90;;;;;;5055198;28;20389;-44
2022/05/30 04:56:50;;;;;;;3.38;2.33;;;11.80;99.90;;;;;;5069936;28;20111;-44
2022/05/30 04:59:16;;;;;;;3.28;2.28;;;12.80;99.90;;;;;;5073798;28;20499;-43
2022/05/30 05:01:41;;;;;;;2.80;2.47;;;13.90;99.90;;;;;;5073508;28;20048;-46
2022/05/30 05:04:09;;;;;;;3.92;2.63;;;14.90;97.10;;;;;;5068588;28;20500;-47
2022/05/30 05:06:35;;;;;;;2.05;1.80;;;15.80;95.40;;;;;;5061720;28;20028;-42
2022/05/30 05:09:07;;;;;;;2.17;1.80;;;16.10;94.30;;;;;;5057142;28;20412;-49
2022/05/30 05:11:36;;;;;;;2.33;2.13;;;16.40;93.20;;;;;;5059979;28;20103;-45
2022/05/30 05:14:01;;;;;;;3.08;2.13;;;16.60;93.30;;;;;;5060097;28;20037;-40
2022/05/30 05:16:30;;;;;;;3.65;1.95;;;17.00;93.00;;;;;;5054772;28;20017;-45
2022/05/30 05:18:56;;;;;;;1.67;1.58;;;17.40;91.70;;;;;;5051159;28;20116;-47
2022/05/30 05:21:26;;;;;;;3.22;1.98;;;17.70;91.10;;;;;;5036176;28;20048;-46
2022/05/30 05:23:52;;;;;;;4.00;1.90;;;17.70;90.80;;;;;;5037840;28;20187;-45
2022/05/30 05:26:19;;;;;;;3.08;2.03;;;18.30;90.00;;;;;;5060549;28;20035;-43
2022/05/30 05:28:45;;;;;;;1.85;1.75;;;18.20;89.00;;;;;;5052219;28;20421;-43
2022/05/30 05:31:16;;;;;;;2.65;1.85;;;17.70;89.70;;;;;;5060349;28;20065;-43
2022/05/30 05:33:42;;;;;;;3.15;2.03;;;16.90;91.40;;;;;;5070173;28;20021;-46
2022/05/30 05:36:07;;;;;;;2.33;1.70;;;17.30;91.40;;;;;;5067260;28;20017;-48
2022/05/30 05:38:33;;;;;;;4.53;1.80;;;18.20;90.30;;;;;;5058627;28;20135;-42
2022/05/30 05:40:58;;;;;;;1.60;1.50;;;18.60;88.20;;;;;;5054032;28;20037;-48
2022/05/30 05:43:24;;;;;;;2.75;1.75;;;18.30;88.60;;;;;;5052826;28;20088;-46
2022/05/30 05:45:49;;;;;;;3.63;1.92;;;17.90;89.90;;;;;;5064695;28;20476;-46
2022/05/30 05:48:15;;;;;;;2.67;1.92;;;17.40;89.90;;;;;;5052480;28;20044;-40
2022/05/30 05:50:42;;;;;;;2.80;2.47;;;16.80;91.10;;;;;;5051624;28;20062;-45
2022/05/30 05:53:09;;;;;;;3.20;2.20;;;16.30;91.70;;;;;;5052638;28;20025;-48
2022/05/30 05:55:35;;;;;;;3.33;1.80;;;15.80;92.50;;;;;;5052656;28;20095;-45
2022/05/30 05:58:00;;;;;;;5.80;1.95;;;15.20;94.00;;;;;;5052409;28;20151;-44
2022/05/30 06:00:27;;;;;;;6.00;2.15;;;15.10;94.70;;;;;;5052719;28;20021;-43
2022/05/30 06:02:52;;;;;;;4.60;2.17;;;15.00;94.80;;;;;;5052195;28;20037;-45
2022/05/30 06:05:18;;;;;;;2.70;2.50;;;15.10;95.30;;;;;;5052589;28;20527;-46
2022/05/30 06:07:44;;;;;;;3.95;2.20;;;15.10;95.30;;;;;;5051999;28;20040;-46
2022/05/30 06:10:13;;;;;;;6.07;3.15;;;15.30;94.90;;;;;;5052481;28;20056;-46
2022/05/30 06:12:42;;;;;;;3.70;2.50;;;16.00;94.20;;;;;;5056099;28;20028;-43
2022/05/30 06:15:13;;;;;;;3.42;1.98;;;16.70;92.80;;;;;;5068919;28;20017;-43
2022/05/30 06:17:40;;;;;;;7.53;2.58;;;17.10;92.40;;;;;;5069103;28;20040;-47
2022/05/30 06:20:07;;;;;;;4.15;2.08;;;17.30;91.60;;;;;;5061585;28;20091;-46
2022/05/30 06:22:33;;;;;;;3.15;2.50;;;17.10;91.50;;;;;;5052904;28;20025;-49
2022/05/30 06:24:58;;;;;;;5.90;2.60;;;17.60;91.60;;;;;;5052202;28;20031;-48
2022/05/30 06:27:24;;;;;;;3.67;2.15;;;18.40;90.60;;;;;;5051751;28;20032;-43
2022/05/30 06:29:51;;;;;;;2.42;2.00;;;19.20;87.70;;;;;;5052057;28;20025;-46
2022/05/30 06:32:17;;;;;;;2.08;1.95;;;19.50;87.00;;;;;;5055995;28;20020;-45
2022/05/30 06:34:42;;;;;;;4.05;1.88;;;19.60;85.80;;;;;;5070262;28;20115;-43
2022/05/30 06:37:08;;;;;;;2.45;1.77;;;19.80;86.70;;;;;;5053074;28;20182;-45
2022/05/30 06:39:34;;;;;;;4.20;1.60;;;20.60;84.80;;;;;;5063038;28;20066;-48
2022/05/30 06:41:59;;;;;;;1.95;1.60;;;21.20;82.00;;;;;;5064144;28;20032;-47
2022/05/30 06:44:25;;;;;;;2.67;1.40;;;21.40;81.00;;;;;;5051575;28;20154;-47
2022/05/30 06:46:51;;;;;;;3.40;1.38;;;21.20;81.00;;;;;;5051723;28;20033;-44
2022/05/30 06:49:16;;;;;;;2.08;1.60;;;21.20;80.90;;;;;;5052899;28;20091;-50
2022/05/30 06:51:42;;;;;;;2.30;1.30;;;20.50;81.50;;;;;;5060195;28;20050;-44
2022/05/30 06:54:08;;;;;;;4.57;1.83;;;20.20;82.30;;;;;;5055264;28;20054;-42
2022/05/30 06:58:11;;;;;;;3.50;1.52;;;19.90;83.50;;;;;;5050297;28;20021;-41
2022/05/30 06:59:26;;;;;;;1.88;1.40;;;19.40;85.40;;;;;;5031463;28;20025;-51
2022/05/30 07:01:52;;;;;;;3.45;1.45;;;19.50;85.10;;;;;;5072876;23;20045;-44
2022/05/30 07:04:18;;;;;;;3.85;1.60;;;19.30;84.50;;;;;;5057288;28;20110;-45
2022/05/30 07:06:45;;;;;;;1.25;1.13;;;19.30;85.50;;;;;;5063656;28;20020;-46
2022/05/30 07:09:11;;;;;;;2.55;1.52;;;19.10;85.30;;;;;;5071742;28;20498;-45
2022/05/30 07:11:39;;;;;;;6.32;1.38;;;18.60;85.80;;;;;;5068916;28;20036;-49
2022/05/30 07:14:12;;;;;;;3.88;1.75;;;18.10;87.20;;;;;;5051799;28;20473;-46
2022/05/30 07:16:39;;;;;;;4.97;1.55;;;18.50;86.90;;;;;;5032558;28;20461;-49
2022/05/30 07:19:05;;;;;;;9.65;2.03;;;18.70;86.00;;;;;;5031465;28;20561;-45
2022/05/30 07:21:31;;;;;;;3.22;1.63;;;18.90;85.10;;;;;;5039683;28;20102;-47
2022/05/30 07:23:57;;;;;;;1.48;1.10;;;19.50;86.10;;;;;;5039865;28;20025;-45
2022/05/30 07:26:23;;;;;;;2.55;0.98;;;20.10;83.20;;;;;;5031902;28;20018;-45
2022/05/30 07:28:49;;;;;;;3.63;1.20;;;21.20;81.50;;;;;;5031698;28;20057;-43
2022/05/30 07:31:17;;;;;;;8.15;1.73;;;21.20;80.10;;;;;;5032116;28;20021;-46
2022/05/30 07:33:48;;;;;;;2.08;1.40;;;21.30;79.80;;;;;;5031583;28;20017;-43
2022/05/30 07:36:21;;;;;;;3.60;1.25;;;22.50;76.70;;;;;;5031525;28;20079;-47
2022/05/30 07:38:47;;;;;;;4.45;1.20;;;22.80;76.70;;;;;;5030621;28;20032;-44
2022/05/30 07:41:13;;;;;;;3.10;1.48;;;23.40;73.10;;;;;;5031814;28;20064;-45
2022/05/30 07:43:38;;;;;;;1.52;0.98;;;23.40;71.70;;;;;;5031759;28;20063;-46
2022/05/30 07:46:06;;;;;;;3.28;1.40;;;22.80;72.10;;;;;;5030309;28;20025;-44
2022/05/30 07:48:32;;;;;;;2.35;1.00;;;22.00;73.90;;;;;;5031433;28;20021;-44
2022/05/30 07:51:00;;;;;;;4.60;1.10;;;21.40;74.90;;;;;;5031458;28;20505;-45
2022/05/30 07:53:26;;;;;;;0.98;0.82;;;21.20;75.40;;;;;;5031407;28;20044;-45
2022/05/30 07:55:52;;;;;;;3.03;1.20;;;20.40;75.00;;;;;;5032045;28;20030;-46
2022/05/30 07:58:18;;;;;;;5.07;1.15;;;19.80;77.10;;;;;;5030345;28;20030;-43
2022/05/30 08:00:44;;;;;;;1.77;0.90;;;19.50;78.30;;;;;;5031767;28;20121;-42
2022/05/30 08:03:15;;;;;;;2.85;0.90;;;19.10;78.50;;;;;;5031408;28;20117;-44
2022/05/30 08:05:43;;;;;;;2.40;1.08;;;19.10;78.70;;;;;;5047055;28;20026;-44
2022/05/30 08:08:09;;;;;;;6.13;1.20;;;19.30;78.40;;;;;;5031349;28;20083;-44
2022/05/30 08:10:34;;;;;;;2.63;1.10;;;19.60;78.60;;;;;;5035021;28;20022;-43
2022/05/30 08:13:00;;;;;;;3.70;1.70;;;19.90;78.90;;;;;;5035063;28;20507;-42
2022/05/30 08:15:26;;;;;;;2.00;1.20;;;19.80;78.50;;;;;;5035207;28;20025;-46
2022/05/30 08:17:56;;;;;;;2.92;1.25;;;19.50;79.40;;;;;;5034794;28;20060;-44
2022/05/30 08:20:23;;;;;;;2.47;1.25;;;19.20;80.10;;;;;;5034752;28;20061;-45
2022/05/30 08:22:48;;;;;;;4.30;1.38;;;19.20;80.50;;;;;;5034893;28;20417;-44
2022/05/30 08:25:16;;;;;;;6.15;1.45;;;18.70;80.10;;;;;;5034967;28;20025;-46
2022/05/30 08:27:43;;;;;;;3.88;1.20;;;18.20;80.90;;;;;;5034249;28;20025;-45
2022/05/30 08:30:10;;;;;;;2.53;1.55;;;17.80;82.60;;;;;;5034652;28;20032;-45
2022/05/30 08:32:39;;;;;;;3.35;1.10;;;17.50;83.10;;;;;;5034675;28;20075;-47
2022/05/30 08:35:06;;;;;;;6.47;1.23;;;17.30;84.40;;;;;;5034459;28;20013;-43
2022/05/30 08:37:34;;;;;;;5.47;1.05;;;17.20;85.50;;;;;;5034386;28;20032;-44
2022/05/30 08:42:50;;;;;;;3.20;1.00;;;17.00;84.60;;;;;;5034728;28;20175;-45
2022/05/30 08:45:19;;;;;;;4.07;1.40;;;16.90;85.00;;;;;;5034438;28;20061;-47
2022/05/30 08:47:51;;;;;;;2.38;0.98;;;16.80;85.20;;;;;;5034125;28;20095;-43
2022/05/30 08:50:36;;;;;;;2.60;1.20;;;16.80;86.20;;;;;;5034494;28;20037;-46
2022/05/30 08:53:02;;;;;;;4.10;1.17;;;16.90;85.10;;;;;;5034363;28;20022;-45
2022/05/30 08:56:06;;;;;;;2.70;1.10;;;16.90;84.80;;;;;;5034265;28;20029;-45
2022/05/30 08:58:59;;;;;;;2.60;1.13;;;16.80;84.90;;;;;;5034277;28;20112;-46
2022/05/30 09:01:39;;;;;;;3.40;0.85;;;16.60;86.40;;;;;;5034276;28;20090;-48
2022/05/30 09:04:26;;;;;;;2.13;1.50;;;16.40;86.30;;;;;;5034261;28;20033;-46
2022/05/30 09:07:04;;;;;;;1.65;0.88;;;16.30;87.10;;;;;;5033675;28;20033;-44
2022/05/30 09:09:35;;;;;;;5.80;1.27;;;16.50;87.20;;;;;;5034140;28;20149;-45
2022/05/30 09:12:30;;;;;;;3.67;1.20;;;16.80;86.60;;;;;;5033916;28;20064;-46
2022/05/30 09:15:04;;;;;;;5.85;0.90;;;16.80;85.90;;;;;;5025582;28;20033;-44
2022/05/30 09:17:41;;;;;;;2.53;0.95;;;16.80;85.50;;;;;;5032293;28;20037;-45
2022/05/30 09:20:10;;;;;;;4.45;1.23;;;16.50;86.10;;;;;;5033414;28;20037;-44
2022/05/30 09:22:38;;;;;;;1.58;0.73;;;16.40;86.50;;;;;;5048636;28;20086;-44
2022/05/30 09:27:49;;;;;;;3.35;1.27;;;16.40;87.00;;;;;;5033577;28;20405;-43
2022/05/30 09:30:21;;;;;;;3.03;0.90;;;16.40;87.30;;;;;;5033643;28;20033;-44
2022/05/30 09:32:55;;;;;;;3.75;0.85;;;16.40;88.30;;;;;;5033570;28;20044;-44
2022/05/30 09:35:30;;;;;;;2.35;1.13;;;16.30;86.20;;;;;;5033028;28;20017;-45
2022/05/30 09:38:07;;;;;;;1.50;1.05;;;16.40;86.10;;;;;;5031877;28;20052;-47
2022/05/30 09:40:47;;;;;;;6.97;1.55;;;16.50;85.60;;;;;;5031673;28;20507;-45
2022/05/30 09:43:48;;;;;;;2.63;1.10;;;16.60;85.90;;;;;;5033166;28;20033;-46
2022/05/30 09:46:33;;;;;;;1.05;1.02;;;16.60;84.50;;;;;;5033448;28;20068;-46
2022/05/30 09:49:13;;;;;;;2.13;0.90;;;16.80;85.50;;;;;;5032920;28;20048;-47
2022/05/30 09:51:50;;;;;;;5.05;1.15;;;17.10;85.10;;;;;;5033040;28;20029;-45
2022/05/30 09:54:25;;;;;;;4.32;2.17;;;17.10;84.60;;;;;;5031956;28;20033;-46
2022/05/30 09:57:12;;;;;;;4.20;1.30;;;17.00;84.40;;;;;;5033195;28;20018;-44
2022/05/30 09:59:43;;;;;;;3.88;1.00;;;16.90;86.30;;;;;;5033175;28;20029;-43
2022/05/30 10:02:31;;;;;;;3.88;1.17;;;17.10;84.60;;;;;;5032848;28;20026;-47
2022/05/30 10:05:15;;;;;;;10.88;4.90;;;16.90;83.70;;;;;;5033151;28;20022;-47
2022/05/30 10:07:52;;;;;;;1.25;1.15;;;17.10;83.80;;;;;;5032709;28;20484;-45
2022/05/30 10:10:20;;;;;;;1.95;1.00;;;17.10;84.60;;;;;;5033047;28;20064;-46
2022/05/30 10:12:55;;;;;;;4.88;1.00;;;16.80;84.80;;;;;;5032842;28;20440;-43
2022/05/30 10:15:34;;;;;;;5.18;1.02;;;16.80;85.90;;;;;;5033031;28;20057;-43
2022/05/30 10:18:16;;;;;;;1.98;0.90;;;16.70;86.30;;;;;;5031604;28;20053;-45
2022/05/30 10:21:00;;;;;;;7.97;1.20;;;16.70;85.50;;;;;;5032521;28;20040;-43
2022/05/30 10:30:06;;;;;;;3.60;1.10;;;16.90;86.00;;;;;;5032713;28;20420;-44
2022/05/30 10:33:02;;;;;;;1.23;0.88;;;17.10;85.00;;;;;;5032282;28;20076;-44
2022/05/30 10:35:54;;;;;;;4.85;0.90;;;17.40;84.20;;;;;;5032413;28;20021;-44
2022/05/30 10:38:33;;;;;;;3.20;1.27;;;17.50;84.00;;;;;;5032134;28;20370;-46
2022/05/30 10:41:17;;;;;;;6.82;1.67;;;17.50;84.00;;;;;;5032240;28;20100;-45
2022/05/30 10:44:18;;;;;;;2.45;1.23;;;17.70;84.50;;;;;;5032256;28;20029;-45
2022/05/30 10:47:02;;;;;;;1.80;1.08;;;18.10;81.80;;;;;;5032067;28;20440;-46
2022/05/30 10:49:33;;;;;;;1.15;0.90;;;18.10;80.20;;;;;;5032233;28;20029;-44
2022/05/30 10:52:02;;;;;;;4.43;1.50;;;17.70;80.30;;;;;;5036499;28;20033;-44
2022/05/30 10:54:51;;;;;;;3.85;1.48;;;17.40;81.50;;;;;;5051936;28;20108;-43
2022/05/30 10:57:48;;;;;;;6.20;1.17;;;17.50;83.10;;;;;;5051521;28;20025;-47
2022/05/30 11:00:19;;;;;;;2.88;1.17;;;17.50;82.80;;;;;;5047289;28;20044;-49
2022/05/30 11:02:47;;;;;;;1.02;0.93;;;17.70;80.60;;;;;;5051263;28;20041;-46
2022/05/30 11:05:21;;;;;;;2.55;1.42;;;17.60;82.70;;;;;;5047676;28;20029;-46
2022/05/30 11:07:58;;;;;;;7.22;0.90;;;17.80;80.20;;;;;;5040514;28;20079;-47
2022/05/30 11:10:37;;;;;;;1.42;1.33;;;17.80;79.50;;;;;;5038701;28;20024;-45
2022/05/30 11:13:14;;;;;;;2.17;1.25;;;17.40;80.00;;;;;;5032325;28;20060;-48
2022/05/30 11:16:02;;;;;;;1.83;1.10;;;17.20;81.40;;;;;;5051488;28;20501;-47
2022/05/30 11:18:50;;;;;;;1.48;1.38;;;17.10;79.80;;;;;;5050977;28;20096;-46
2022/05/30 11:21:34;;;;;;;6.53;1.08;;;17.20;78.00;;;;;;5051120;28;20083;-49
2022/05/30 11:24:04;;;;;;;0.70;0.70;;;17.40;79.00;;;;;;5051794;28;20497;-46
2022/05/30 11:26:44;;;;;;;2.63;0.80;;;17.30;77.40;;;;;;5045563;28;20459;-45
2022/05/30 11:29:31;;;;;;;1.65;0.85;;;17.20;74.30;;;;;;5033067;28;20152;-45
2022/05/30 11:32:07;;;;;;;1.35;0.98;;;17.30;74.80;;;;;;5043907;28;20029;-46
2022/05/30 11:35:03;;;;;;;3.47;1.02;;;17.40;76.80;;;;;;5031033;28;20022;-50
2022/05/30 11:38:07;;;;;;;1.00;0.90;;;17.50;76.80;;;;;;5041898;28;20028;-46
2022/05/30 11:40:39;;;;;;;3.20;1.30;;;17.60;75.70;;;;;;5045751;28;20037;-49
2022/05/30 11:43:37;;;;;;;4.80;1.67;;;17.70;76.80;;;;;;5043534;28;20040;-45
2022/05/30 11:46:16;;;;;;;1.90;0.95;;;17.60;77.10;;;;;;5050610;28;20512;-48
2022/05/30 11:49:20;;;;;;;3.20;1.20;;;17.50;75.40;;;;;;5042850;28;20525;-47
2022/05/30 11:52:13;;;;;;;1.85;1.05;;;17.40;77.00;;;;;;5031204;28;20104;-46
2022/05/30 11:54:45;;;;;;;2.83;0.73;;;17.30;77.00;;;;;;5055248;28;20094;-45
2022/05/30 11:57:23;;;;;;;4.15;1.10;;;17.40;78.20;;;;;;5054669;28;20032;-45
2022/05/30 12:00:04;;;;;;;4.05;1.10;;;17.50;80.30;;;;;;5055065;28;20031;-46
2022/05/30 12:03:11;;;;;;;3.53;1.63;;;17.70;80.70;;;;;;5055073;28;20040;-48
2022/05/30 12:06:04;;;;;;;3.17;1.20;;;17.80;81.50;;;;;;5049496;28;20032;-49
2022/05/30 12:08:35;;;;;;;2.70;1.13;;;17.90;80.40;;;;;;5035048;28;20119;-49
2022/05/30 12:11:03;;;;;;;4.53;1.33;;;18.00;79.90;;;;;;5035110;28;20476;-46
2022/05/30 12:13:51;;;;;;;3.08;1.10;;;18.10;79.40;;;;;;5034917;28;20102;-45
2022/05/30 12:16:29;;;;;;;5.57;1.55;;;18.20;79.60;;;;;;5034821;28;20018;-46
2022/05/30 12:24:41;;;;;;;5.53;1.40;;;17.20;81.80;;;;;;5053240;28;20094;-50
2022/05/30 12:27:31;;;;;;;1.30;1.20;;;17.10;81.90;;;;;;5039428;28;20025;-47
2022/05/30 12:29:57;;;;;;;1.85;1.40;;;17.20;82.40;;;;;;5050471;28;20083;-48
2022/05/30 12:32:24;;;;;;;2.78;1.48;;;17.20;81.50;;;;;;5050417;28;20107;-45
2022/05/30 12:35:05;;;;;;;2.13;1.10;;;17.10;82.00;;;;;;5056728;28;20068;-46
2022/05/30 12:37:58;;;;;;;4.20;1.15;;;17.00;82.20;;;;;;5042909;28;20021;-44
2022/05/30 12:40:26;;;;;;;1.45;1.30;;;17.10;82.80;;;;;;5034883;28;20017;-47
2022/05/30 12:43:07;;;;;;;2.53;1.27;;;17.30;82.20;;;;;;5034551;28;20034;-45
2022/05/30 12:45:54;;;;;;;4.22;1.30;;;17.60;81.50;;;;;;5045326;28;20090;-44
2022/05/30 12:48:34;;;;;;;2.25;0.90;;;17.70;80.70;;;;;;5052555;28;20037;-44
2022/05/30 12:51:20;;;;;;;1.67;1.15;;;17.70;80.70;;;;;;5035265;28;20061;-44
2022/05/30 12:54:08;;;;;;;1.20;0.80;;;17.90;79.50;;;;;;5044143;28;20021;-43
2022/05/30 12:56:37;;;;;;;5.97;1.08;;;17.90;79.70;;;;;;5040971;28;20115;-50
2022/05/30 12:59:02;;;;;;;5.25;1.50;;;18.10;79.20;;;;;;5033913;28;20029;-50
2022/05/30 13:01:43;;;;;;;2.15;1.88;;;18.20;78.50;;;;;;5032583;28;20022;-47
2022/05/30 13:04:27;;;;;;;10.98;7.97;;;18.10;75.60;;;;;;5073605;22;20056;-46
2022/05/30 13:06:58;;;;;;;7.70;3.75;;;18.00;77.60;;;;;;5035722;28;20029;-43
2022/05/30 13:09:33;;;;;;;1.70;1.40;;;18.20;76.60;;;;;;5034055;28;20492;-47
2022/05/30 13:12:11;;;;;;;2.22;1.08;;;18.30;77.60;;;;;;5034023;28;20021;-45
2022/05/30 13:14:37;;;;;;;4.32;1.25;;;18.40;77.10;;;;;;5033915;28;20052;-48
2022/05/30 13:17:23;;;;;;;2.10;0.90;;;18.50;76.70;;;;;;5015709;28;20057;-48
2022/05/30 13:20:02;;;;;;;2.45;0.90;;;18.60;75.30;;;;;;5033976;28;20101;-45
2022/05/30 13:22:30;;;;;;;2.28;1.10;;;18.60;76.30;;;;;;5034436;28;20087;-45
2022/05/30 13:24:56;;;;;;;1.63;1.20;;;18.50;75.50;;;;;;5033353;28;20024;-45
2022/05/30 13:27:24;;;;;;;1.98;0.80;;;18.40;76.50;;;;;;5033354;28;20029;-45
2022/05/30 13:29:50;;;;;;;1.70;1.30;;;18.40;76.00;;;;;;5033952;28;20022;-49
2022/05/30 13:32:20;;;;;;;1.27;1.00;;;18.40;75.50;;;;;;5033647;28;20014;-47
2022/05/30 13:34:48;;;;;;;2.10;1.13;;;18.40;76.00;;;;;;5033749;28;20095;-50